Terminal Aerodrome Forecast
Issued by NWS

Home | Current Version | Previous Version | Text Only | Print | Product List | Glossary On
Versions: 1 2 3 4 5 6 7 8 9 10 11 12 13 14 15
419
FTUS43 KIND 282327
TAFBMG
TAF
KBMG 282327Z 2900/2924 13006KT 5SM SHRA VCTS OVC030CB
     FM290500 19006KT 3SM SHRA VCTS OVC003CB
     FM290700 19005KT 4SM SHRA VCTS OVC015CB
     FM291200 13005KT P6SM SHRA VCTS OVC015CB
     FM291700 16007KT P6SM VCTS OVC015CB
      AMD LTD TO CLD VIS AND WIND 2901/2913=

USA.gov is the U.S. government's official web portal to all federal, state and local government web resources and services.